Observation data for Brownfield on 07/11/2018      Previous  Date       Current Mesonet Observations  Soil Data  Daily Summary Page  Observations in Plain Language
KBWS 110500Z 17006KT 24/16 A3015 RMK A01 T02390157  RH  061%=      5-min Rain = 0
KBWS 110505Z 17007KT 24/16 A3015 RMK A01 T02360158  RH  063%=      5-min Rain = 0
KBWS 110510Z 16006KT 23/16 A3015 RMK A01 T02340158  RH  064%=      5-min Rain = 0
KBWS 110515Z 17006KT 23/16 A3015 RMK A01 T02330158  RH  064%=      5-min Rain = 0
KBWS 110520Z 17006KT 23/16 A3015 RMK A01 T02310158  RH  065%=      5-min Rain = 0
KBWS 110525Z 17006KT 23/16 A3015 RMK A01 T02300158  RH  065%=      5-min Rain = 0
KBWS 110530Z 17007KT 23/16 A3015 RMK A01 T02290158  RH  066%=      5-min Rain = 0
KBWS 110535Z 17006KT 23/16 A3015 RMK A01 T02290159  RH  066%=      5-min Rain = 0
KBWS 110540Z 17006KT 23/16 A3015 RMK A01 T02290159  RH  066%=      5-min Rain = 0
KBWS 110545Z 17006KT 23/16 A3015 RMK A01 T02280159  RH  067%=      5-min Rain = 0
KBWS 110550Z 17005KT 23/16 A3015 RMK A01 T02290160  RH  067%=      5-min Rain = 0
KBWS 110555Z 17005KT 23/16 A3015 RMK A01 T02300160  RH  066%=      5-min Rain = 0
KBWS 110600Z 17005KT 23/16 A3015 RMK A01 T02300161  RH  066%=      5-min Rain = 0
KBWS 110605Z 17005KT 23/16 A3015 RMK A01 T02310162  RH  067%=      5-min Rain = 0
KBWS 110610Z 17005KT 23/16 A3015 RMK A01 T02310162  RH  067%=      5-min Rain = 0
KBWS 110615Z 18006KT 23/16 A3015 RMK A01 T02310163  RH  067%=      5-min Rain = 0
KBWS 110620Z 18006KT 23/16 A3015 RMK A01 T02320163  RH  067%=      5-min Rain = 0
KBWS 110625Z 18005KT 24/16 A3015 RMK A01 T02350164  RH  066%=      5-min Rain = 0
KBWS 110630Z 18005KT 24/16 A3015 RMK A01 T02360164  RH  065%=      5-min Rain = 0
KBWS 110635Z 17005KT 24/16 A3015 RMK A01 T02360164  RH  065%=      5-min Rain = 0
KBWS 110640Z 17005KT 24/16 A3015 RMK A01 T02360164  RH  066%=      5-min Rain = 0
KBWS 110645Z 17005KT 24/16 A3015 RMK A01 T02360164  RH  066%=      5-min Rain = 0
KBWS 110650Z 17005KT 24/16 A3015 RMK A01 T02350164  RH  066%=      5-min Rain = 0
KBWS 110655Z 16004KT 24/16 A3015 RMK A01 T02350164  RH  066%=      5-min Rain = 0
KBWS 110700Z 16003KT 23/17 A3015 RMK A01 T02340165  RH  067%=      5-min Rain = 0
KBWS 110705Z 15003KT 23/17 A3015 RMK A01 T02330166  RH  067%=      5-min Rain = 0
KBWS 110710Z 16003KT 23/17 A3015 RMK A01 T02320166  RH  068%=      5-min Rain = 0
KBWS 110715Z 14002KT 23/17 A3015 RMK A01 T02310167  RH  069%=      5-min Rain = 0
KBWS 110720Z 15002KT 23/17 A3015 RMK A01 T02290166  RH  070%=      5-min Rain = 0
KBWS 110725Z 13001KT 23/17 A3015 RMK A01 T02270165  RH  069%=      5-min Rain = 0
KBWS 110730Z 13000KT 23/16 A3015 RMK A01 T02270164  RH  069%=      5-min Rain = 0
KBWS 110735Z 13000KT 23/16 A3015 RMK A01 T02250164  RH  070%=      5-min Rain = 0
KBWS 110740Z 14001KT 23/16 A3015 RMK A01 T02250163  RH  070%=      5-min Rain = 0
KBWS 110745Z 15002KT 23/16 A3015 RMK A01 T02250164  RH  070%=      5-min Rain = 0
KBWS 110750Z 15003KT 22/16 A3015 RMK A01 T02240164  RH  070%=      5-min Rain = 0
KBWS 110755Z 15004KT 22/16 A3015 RMK A01 T02210163  RH  071%=      5-min Rain = 0
KBWS 110800Z 15004KT 22/16 A3015 RMK A01 T02180162  RH  072%=      5-min Rain = 0
KBWS 110805Z 17005KT 22/16 A3014 RMK A01 T02180162  RH  072%=      5-min Rain = 0
KBWS 110810Z 17005KT 22/16 A3014 RMK A01 T02170162  RH  072%=      5-min Rain = 0
KBWS 110815Z 17005KT 22/16 A3014 RMK A01 T02180161  RH  072%=      5-min Rain = 0
KBWS 110820Z 17004KT 22/16 A3014 RMK A01 T02170161  RH  072%=      5-min Rain = 0
KBWS 110825Z 17004KT 21/16 A3014 RMK A01 T02140160  RH  073%=      5-min Rain = 0
KBWS 110830Z 16004KT 21/16 A3014 RMK A01 T02120160  RH  074%=      5-min Rain = 0
KBWS 110835Z 16003KT 21/16 A3014 RMK A01 T02110159  RH  074%=      5-min Rain = 0
KBWS 110840Z 16003KT 21/16 A3014 RMK A01 T02110160  RH  074%=      5-min Rain = 0
KBWS 110845Z 16004KT 21/16 A3014 RMK A01 T02110160  RH  074%=      5-min Rain = 0
KBWS 110850Z 15004KT 21/16 A3014 RMK A01 T02100161  RH  075%=      5-min Rain = 0
KBWS 110855Z 14004KT 21/16 A3014 RMK A01 T02070161  RH  077%=      5-min Rain = 0
KBWS 110900Z 13003KT 21/16 A3014 RMK A01 T02090160  RH  075%=      5-min Rain = 0
KBWS 110905Z 12003KT 21/16 A3014 RMK A01 T02100158  RH  074%=      5-min Rain = 0
KBWS 110910Z 11002KT 21/16 A3014 RMK A01 T02110157  RH  073%=      5-min Rain = 0
KBWS 110915Z 11002KT 21/16 A3014 RMK A01 T02140156  RH  071%=      5-min Rain = 0
KBWS 110920Z 10002KT 22/16 A3014 RMK A01 T02160156  RH  070%=      5-min Rain = 0
KBWS 110925Z 10002KT 21/16 A3014 RMK A01 T02130161  RH  074%=      5-min Rain = 0
KBWS 110930Z 12002KT 21/16 A3014 RMK A01 T02120160  RH  074%=      5-min Rain = 0
KBWS 110935Z 13002KT 21/16 A3014 RMK A01 T02120156  RH  072%=      5-min Rain = 0
KBWS 110940Z 13002KT 21/16 A3014 RMK A01 T02110156  RH  073%=      5-min Rain = 0
KBWS 110945Z 11003KT 21/16 A3013 RMK A01 T02080158  RH  074%=      5-min Rain = 0
KBWS 110950Z 10003KT 21/16 A3013 RMK A01 T02070158  RH  075%=      5-min Rain = 0
KBWS 110955Z 09004KT 21/16 A3013 RMK A01 T02070160  RH  076%=      5-min Rain = 0
KBWS 111000Z 09004KT 21/16 A3013 RMK A01 T02070162  RH  077%=      5-min Rain = 0
KBWS 111005Z 09004KT 21/16 A3013 RMK A01 T02080164  RH  078%=      5-min Rain = 0
KBWS 111010Z 09004KT 21/16 A3013 RMK A01 T02090164  RH  077%=      5-min Rain = 0
KBWS 111015Z 10004KT 21/17 A3014 RMK A01 T02090165  RH  078%=      5-min Rain = 0
KBWS 111020Z 10005KT 21/17 A3014 RMK A01 T02090165  RH  077%=      5-min Rain = 0
KBWS 111025Z 11005KT 21/16 A3014 RMK A01 T02100164  RH  077%=      5-min Rain = 0
KBWS 111030Z 11005KT 21/16 A3014 RMK A01 T02090164  RH  077%=      5-min Rain = 0
KBWS 111035Z 11005KT 21/16 A3014 RMK A01 T02090164  RH  077%=      5-min Rain = 0
KBWS 111040Z 12005KT 21/16 A3014 RMK A01 T02100162  RH  076%=      5-min Rain = 0
KBWS 111045Z 13005KT 21/16 A3014 RMK A01 T02100162  RH  076%=      5-min Rain = 0
KBWS 111050Z 13005KT 21/16 A3014 RMK A01 T02100161  RH  075%=      5-min Rain = 0
KBWS 111055Z 14005KT 21/16 A3014 RMK A01 T02120157  RH  073%=      5-min Rain = 0
KBWS 111100Z 14005KT 21/15 A3014 RMK A01 T02130154  RH  071%=      5-min Rain = 0
KBWS 111105Z 14005KT 21/15 A3014 RMK A01 T02130152  RH  070%=      5-min Rain = 0
KBWS 111110Z 14005KT 21/15 A3014 RMK A01 T02120152  RH  070%=      5-min Rain = 0
KBWS 111115Z 14005KT 21/15 A3014 RMK A01 T02110151  RH  070%=      5-min Rain = 0
KBWS 111120Z 13005KT 21/15 A3014 RMK A01 T02110149  RH  069%=      5-min Rain = 0
KBWS 111125Z 14006KT 21/15 A3015 RMK A01 T02110146  RH  068%=      5-min Rain = 0
KBWS 111130Z 15006KT 21/14 A3015 RMK A01 T02120144  RH  066%=      5-min Rain = 0
KBWS 111135Z 15006KT 21/14 A3015 RMK A01 T02110144  RH  067%=      5-min Rain = 0
KBWS 111140Z 15006KT 21/14 A3015 RMK A01 T02090144  RH  068%=      5-min Rain = 0
KBWS 111145Z 15006KT 21/14 A3015 RMK A01 T02070144  RH  068%=      5-min Rain = 0
KBWS 111150Z 16006KT 21/14 A3015 RMK A01 T02050143  RH  069%=      5-min Rain = 0
KBWS 111155Z 16006KT 20/14 A3015 RMK A01 T02040143  RH  069%=      5-min Rain = 0
KBWS 111200Z 16006KT 20/14 A3015 RMK A01 T02030143  RH  070%=      5-min Rain = 0
KBWS 111205Z 16006KT 20/14 A3015 RMK A01 T02030142  RH  070%=      5-min Rain = 0
KBWS 111210Z 16006KT 20/14 A3015 RMK A01 T02030142  RH  069%=      5-min Rain = 0
KBWS 111215Z 16006KT 20/14 A3015 RMK A01 T02030142  RH  069%=      5-min Rain = 0
KBWS 111220Z 16006KT 20/14 A3016 RMK A01 T02040141  RH  069%=      5-min Rain = 0
KBWS 111225Z 15006KT 21/14 A3016 RMK A01 T02070141  RH  067%=      5-min Rain = 0
KBWS 111230Z 16006KT 21/14 A3016 RMK A01 T02090142  RH  067%=      5-min Rain = 0
KBWS 111235Z 16007KT 21/14 A3016 RMK A01 T02100142  RH  066%=      5-min Rain = 0
KBWS 111240Z 16007KT 21/14 A3015 RMK A01 T02110142  RH  066%=      5-min Rain = 0
KBWS 111245Z 16007KT 21/14 A3015 RMK A01 T02120142  RH  066%=      5-min Rain = 0
KBWS 111250Z 16008KT 21/14 A3015 RMK A01 T02110143  RH  066%=      5-min Rain = 0
KBWS 111255Z 17008KT 21/14 A3015 RMK A01 T02110143  RH  067%=      5-min Rain = 0
KBWS 111300Z 17008KT 21/14 A3015 RMK A01 T02110144  RH  067%=      5-min Rain = 0
KBWS 111305Z 16009KT 21/15 A3015 RMK A01 T02120145  RH  067%=      5-min Rain = 0
KBWS 111310Z 16009KT 21/15 A3015 RMK A01 T02140146  RH  067%=      5-min Rain = 0
KBWS 111315Z 16009KT 22/15 A3015 RMK A01 T02160148  RH  066%=      5-min Rain = 0
KBWS 111320Z 16010KT 22/15 A3015 RMK A01 T02180149  RH  066%=      5-min Rain = 0
KBWS 111325Z 17010KT 22/15 A3015 RMK A01 T02190150  RH  066%=      5-min Rain = 0
KBWS 111330Z 17009KT 22/15 A3015 RMK A01 T02190151  RH  066%=      5-min Rain = 0
KBWS 111335Z 17010KT 22/15 A3016 RMK A01 T02240152  RH  065%=      5-min Rain = 0
KBWS 111340Z 17010KT 23/15 A3016 RMK A01 T02300153  RH  064%=      5-min Rain = 0
KBWS 111345Z 18009KT 23/15 A3016 RMK A01 T02330154  RH  063%=      5-min Rain = 0
KBWS 111350Z 18011KT 24/16 A3016 RMK A01 T02360155  RH  062%=      5-min Rain = 0
KBWS 111355Z 18012KT 24/16 A3016 RMK A01 T02380155  RH  061%=      5-min Rain = 0
KBWS 111400Z 18013KT 24/16 A3016 RMK A01 T02390156  RH  061%=      5-min Rain = 0
KBWS 111405Z 18013KT 24/16 A3016 RMK A01 T02400157  RH  061%=      5-min Rain = 0
KBWS 111410Z 18014KT 24/16 A3016 RMK A01 T02430157  RH  060%=      5-min Rain = 0
KBWS 111415Z 18014KT 25/16 A3016 RMK A01 T02450158  RH  059%=      5-min Rain = 0
KBWS 111420Z 18014KT 25/16 A3016 RMK A01 T02470158  RH  059%=      5-min Rain = 0
KBWS 111425Z 17013KT 25/16 A3016 RMK A01 T02500159  RH  058%=      5-min Rain = 0
KBWS 111430Z 18012KT 26/16 A3016 RMK A01 T02560160  RH  057%=      5-min Rain = 0
KBWS 111435Z 18012KT 26/16 A3016 RMK A01 T02560159  RH  056%=      5-min Rain = 0
KBWS 111440Z 18013KT 26/16 A3016 RMK A01 T02570159  RH  056%=      5-min Rain = 0
KBWS 111445Z 17013KT 26/16 A3016 RMK A01 T02570159  RH  056%=      5-min Rain = 0
KBWS 111450Z 18013KT 26/16 A3016 RMK A01 T02570159  RH  056%=      5-min Rain = 0
KBWS 111455Z 19011KT 26/16 A3016 RMK A01 T02620161  RH  055%=      5-min Rain = 0
KBWS 111500Z 18011KT 26/16 A3016 RMK A01 T02640161  RH  054%=      5-min Rain = 0
KBWS 111505Z 19012KT 27/16 A3016 RMK A01 T02660159  RH  053%=      5-min Rain = 0
KBWS 111510Z 20012KT 27/16 A3016 RMK A01 T02680158  RH  052%=      5-min Rain = 0
KBWS 111515Z 19013KT 27/16 A3016 RMK A01 T02690155  RH  051%=      5-min Rain = 0
KBWS 111520Z 19014KT 27/16 A3016 RMK A01 T02710155  RH  050%=      5-min Rain = 0
KBWS 111525Z 19012G17KT 27/16 A3016 RMK A01 T02730156  RH  050%=      5-min Rain = 0
KBWS 111530Z 19011KT 27/16 A3016 RMK A01 T02730156  RH  050%=      5-min Rain = 0
KBWS 111535Z 20011KT 28/16 A3016 RMK A01 T02750156  RH  049%=      5-min Rain = 0
KBWS 111540Z 20012KT 28/15 A3016 RMK A01 T02770154  RH  048%=      5-min Rain = 0
KBWS 111545Z 20012G18KT 28/16 A3016 RMK A01 T02820155  RH  047%=      5-min Rain = 0
KBWS 111550Z 20013KT 28/15 A3016 RMK A01 T02820151  RH  046%=      5-min Rain = 0
KBWS 111555Z 20012G17KT 28/15 A3016 RMK A01 T02830150  RH  045%=      5-min Rain = 0
KBWS 111600Z 20013G18KT 29/15 A3016 RMK A01 T02860148  RH  044%=      5-min Rain = 0
KBWS 111605Z 21012KT 29/15 A3016 RMK A01 T02870152  RH  045%=      5-min Rain = 0
KBWS 111610Z 19012G18KT 29/15 A3016 RMK A01 T02860149  RH  044%=      5-min Rain = 0
KBWS 111615Z 20012KT 29/15 A3016 RMK A01 T02890151  RH  044%=      5-min Rain = 0
KBWS 111620Z 20012G17KT 29/15 A3016 RMK A01 T02880149  RH  044%=      5-min Rain = 0
KBWS 111625Z 20012KT 29/15 A3016 RMK A01 T02900147  RH  042%=      5-min Rain = 0
KBWS 111630Z 19012KT 29/15 A3016 RMK A01 T02920150  RH  043%=      5-min Rain = 0
KBWS 111635Z 16012KT 29/15 A3015 RMK A01 T02940148  RH  042%=      5-min Rain = 0
KBWS 111640Z 18013KT 29/15 A3015 RMK A01 T02940145  RH  041%=      5-min Rain = 0
KBWS 111645Z 18011G17KT 29/15 A3015 RMK A01 T02940148  RH  042%=      5-min Rain = 0
KBWS 111650Z 19010G15KT 30/15 A3015 RMK A01 T02980149  RH  041%=      5-min Rain = 0
KBWS 111655Z 17013G18KT 30/15 A3015 RMK A01 T03030149  RH  040%=      5-min Rain = 0
KBWS 111700Z 18012G18KT 31/14 A3015 RMK A01 T03050144  RH  038%=      5-min Rain = 0
KBWS 111705Z 18013G18KT 30/15 A3015 RMK A01 T03020146  RH  039%=      5-min Rain = 0
KBWS 111710Z 17013G19KT 30/15 A3015 RMK A01 T03020148  RH  040%=      5-min Rain = 0
KBWS 111715Z 19013G18KT 31/15 A3015 RMK A01 T03090148  RH  039%=      5-min Rain = 0
KBWS 111720Z 17013G18KT 31/15 A3015 RMK A01 T03070146  RH  039%=      5-min Rain = 0
KBWS 111725Z 16013G18KT 31/15 A3015 RMK A01 T03110145  RH  037%=      5-min Rain = 0
KBWS 111730Z 16014G21KT 31/14 A3014 RMK A01 T03130137  RH  035%=      5-min Rain = 0
KBWS 111735Z 16016KT 31/14 A3014 RMK A01 T03140135  RH  034%=      5-min Rain = 0
KBWS 111740Z 18013G18KT 31/14 A3014 RMK A01 T03110143  RH  037%=      5-min Rain = 0
KBWS 111745Z 17015G20KT 31/15 A3014 RMK A01 T03110146  RH  038%=      5-min Rain = 0
KBWS 111750Z 17014G21KT 31/14 A3014 RMK A01 T03120143  RH  036%=      5-min Rain = 0
KBWS 111755Z 18016G21KT 31/14 A3014 RMK A01 T03090142  RH  037%=      5-min Rain = 0
KBWS 111800Z 19013KT 31/15 A3014 RMK A01 T03080147  RH  038%=      5-min Rain = 0
KBWS 111805Z 17014G21KT 31/14 A3014 RMK A01 T03100143  RH  037%=      5-min Rain = 0
KBWS 111810Z 17016G22KT 31/14 A3014 RMK A01 T03100139  RH  036%=      5-min Rain = 0
KBWS 111815Z 17015G20KT 31/14 A3013 RMK A01 T03130135  RH  034%=      5-min Rain = 0
KBWS 111820Z 18013G23KT 32/14 A3013 RMK A01 T03180139  RH  035%=      5-min Rain = 0
KBWS 111825Z 17016G23KT 31/14 A3013 RMK A01 T03140136  RH  035%=      5-min Rain = 0
KBWS 111830Z 17016G23KT 32/13 A3012 RMK A01 T03150133  RH  034%=      5-min Rain = 0
KBWS 111835Z 17017G23KT 32/14 A3012 RMK A01 T03170138  RH  034%=      5-min Rain = 0
KBWS 111840Z 17014G21KT 31/14 A3012 RMK A01 T03110137  RH  036%=      5-min Rain = 0
KBWS 111845Z 17016G24KT 31/14 A3012 RMK A01 T03080137  RH  036%=      5-min Rain = 0
KBWS 111850Z 17014G21KT 32/14 A3011 RMK A01 T03200139  RH  034%=      5-min Rain = 0
KBWS 111855Z 18016G23KT 32/14 A3011 RMK A01 T03210137  RH  033%=      5-min Rain = 0
KBWS 111900Z 17017G25KT 32/13 A3011 RMK A01 T03230134  RH  032%=      5-min Rain = 0
KBWS 111905Z 18019G25KT 33/13 A3011 RMK A01 T03250131  RH  031%=      5-min Rain = 0
KBWS 111910Z 17014G24KT 33/13 A3011 RMK A01 T03250129  RH  031%=      5-min Rain = 0
KBWS 111915Z 18013G18KT 33/13 A3011 RMK A01 T03280132  RH  031%=      5-min Rain = 0
KBWS 111920Z 18016G23KT 33/13 A301 RMK A01 T03280131  RH  031%=      5-min Rain = 0
KBWS 111925Z 17016G24KT 33/13 A301 RMK A01 T03280132  RH  031%=      5-min Rain = 0
KBWS 111930Z 17016G23KT 33/13 A301 RMK A01 T03300131  RH  031%=      5-min Rain = 0
KBWS 111935Z 16017G24KT 33/13 A301 RMK A01 T03300129  RH  030%=      5-min Rain = 0
KBWS 111940Z 18016G22KT 33/13 A301 RMK A01 T03270130  RH  031%=      5-min Rain = 0
KBWS 111945Z 16015G22KT 33/13 A3009 RMK A01 T03270128  RH  031%=      5-min Rain = 0
KBWS 111950Z 16018G23KT 34/13 A3009 RMK A01 T03350129  RH  029%=      5-min Rain = 0
KBWS 111955Z 16017G22KT 33/13 A3009 RMK A01 T03290128  RH  030%=      5-min Rain = 0
KBWS 112000Z 16017G24KT 33/13 A3008 RMK A01 T03290128  RH  030%=      5-min Rain = 0
KBWS 112005Z 15018G24KT 33/13 A3008 RMK A01 T03290128  RH  030%=      5-min Rain = 0
KBWS 112010Z 18017G23KT 33/13 A3008 RMK A01 T03320126  RH  029%=      5-min Rain = 0
KBWS 112015Z 18016G25KT 33/13 A3008 RMK A01 T03290127  RH  030%=      5-min Rain = 0
KBWS 112020Z 18015G21KT 33/13 A3008 RMK A01 T03340125  RH  029%=      5-min Rain = 0
KBWS 112025Z 16015G21KT 33/12 A3007 RMK A01 T03320123  RH  029%=      5-min Rain = 0
KBWS 112030Z 17017G23KT 34/13 A3007 RMK A01 T03360125  RH  028%=      5-min Rain = 0
KBWS 112035Z 18015G21KT 34/13 A3007 RMK A01 T03350126  RH  029%=      5-min Rain = 0
KBWS 112040Z 17015KT 33/13 A3007 RMK A01 T03340126  RH  029%=      5-min Rain = 0
KBWS 112045Z 17016G22KT 33/12 A3007 RMK A01 T03340124  RH  028%=      5-min Rain = 0
KBWS 112050Z 17016G23KT 33/13 A3006 RMK A01 T03320125  RH  029%=      5-min Rain = 0
KBWS 112055Z 17015G22KT 33/12 A3006 RMK A01 T03320124  RH  029%=      5-min Rain = 0
KBWS 112100Z 19015G20KT 34/12 A3006 RMK A01 T03360123  RH  028%=      5-min Rain = 0
KBWS 112105Z 17011G16KT 33/12 A3006 RMK A01 T03310123  RH  029%=      5-min Rain = 0
KBWS 112110Z 19014G19KT 34/12 A3005 RMK A01 T03400123  RH  027%=      5-min Rain = 0
KBWS 112115Z 20014G22KT 33/13 A3005 RMK A01 T03340125  RH  029%=      5-min Rain = 0
KBWS 112120Z 20016G24KT 34/12 A3005 RMK A01 T03350124  RH  028%=      5-min Rain = 0
KBWS 112125Z 19013G19KT 34/12 A3005 RMK A01 T03350122  RH  028%=      5-min Rain = 0
KBWS 112130Z 19010G15KT 33/12 A3005 RMK A01 T03290121  RH  029%=      5-min Rain = 0
KBWS 112135Z 18014G20KT 34/12 A3004 RMK A01 T03350123  RH  028%=      5-min Rain = 0
KBWS 112140Z 18015G22KT 33/12 A3004 RMK A01 T03290120  RH  029%=      5-min Rain = 0
KBWS 112145Z 20011G17KT 33/12 A3004 RMK A01 T03280122  RH  029%=      5-min Rain = 0
KBWS 112150Z 16013G20KT 33/12 A3004 RMK A01 T03290124  RH  029%=      5-min Rain = 0
KBWS 112155Z 20015G21KT 33/12 A3004 RMK A01 T03320124  RH  029%=      5-min Rain = 0
KBWS 112200Z 17015KT 34/12 A3003 RMK A01 T03360124  RH  028%=      5-min Rain = 0
KBWS 112205Z 18017KT 33/13 A3003 RMK A01 T03320126  RH  029%=      5-min Rain = 0
KBWS 112210Z 19014G20KT 33/12 A3004 RMK A01 T03280124  RH  029%=      5-min Rain = 0
KBWS 112215Z 20013G18KT 33/13 A3003 RMK A01 T03290125  RH  030%=      5-min Rain = 0
KBWS 112220Z 18012KT 33/13 A3003 RMK A01 T03270126  RH  030%=      5-min Rain = 0
KBWS 112225Z 18014G19KT 33/13 A3003 RMK A01 T03270125  RH  030%=      5-min Rain = 0
KBWS 112230Z 18013KT 33/13 A3003 RMK A01 T03250125  RH  030%=      5-min Rain = 0
KBWS 112235Z 17015KT 32/13 A3003 RMK A01 T03240125  RH  030%=      5-min Rain = 0
KBWS 112240Z 17014KT 32/13 A3003 RMK A01 T03230127  RH  031%=      5-min Rain = 0
KBWS 112245Z 18013KT 33/13 A3003 RMK A01 T03260126  RH  030%=      5-min Rain = 0
KBWS 112250Z 19012G17KT 33/13 A3003 RMK A01 T03260126  RH  030%=      5-min Rain = 0
KBWS 112255Z 17015G20KT 33/13 A3003 RMK A01 T03270128  RH  030%=      5-min Rain = 0
KBWS 112300Z 17015KT 33/13 A3003 RMK A01 T03300128  RH  030%=      5-min Rain = 0
KBWS 112305Z 17015KT 33/13 A3003 RMK A01 T03290127  RH  030%=      5-min Rain = 0
KBWS 112310Z 17015G21KT 33/13 A3003 RMK A01 T03340129  RH  030%=      5-min Rain = 0
KBWS 112315Z 17014KT 33/13 A3003 RMK A01 T03310128  RH  030%=      5-min Rain = 0
KBWS 112320Z 18012KT 33/13 A3003 RMK A01 T03280129  RH  030%=      5-min Rain = 0
KBWS 112325Z 18011KT 33/13 A3003 RMK A01 T03290128  RH  030%=      5-min Rain = 0
KBWS 112330Z 17012KT 33/13 A3002 RMK A01 T03320128  RH  030%=      5-min Rain = 0
KBWS 112335Z 18013G20KT 33/13 A3002 RMK A01 T03340130  RH  030%=      5-min Rain = 0
KBWS 112340Z 18016KT 34/13 A3002 RMK A01 T03350129  RH  029%=      5-min Rain = 0
KBWS 112345Z 19013KT 33/13 A3002 RMK A01 T03320129  RH  030%=      5-min Rain = 0
KBWS 112350Z 17012G20KT 33/13 A3002 RMK A01 T03300130  RH  030%=      5-min Rain = 0
KBWS 112355Z 17014KT 33/13 A3002 RMK A01 T03290130  RH  031%=      5-min Rain = 0
KBWS 120000Z 17013KT 33/13 A3001 RMK A01 T03340131  RH  030%=      5-min Rain = 0
KBWS 120005Z 16016KT 33/13 A3001 RMK A01 T03320132  RH  030%=      5-min Rain = 0
KBWS 120010Z 16015KT 33/13 A3001 RMK A01 T03330132  RH  030%=      5-min Rain = 0
KBWS 120015Z 17017KT 33/13 A3002 RMK A01 T03290130  RH  030%=      5-min Rain = 0
KBWS 120020Z 16015KT 33/13 A3002 RMK A01 T03260130  RH  031%=      5-min Rain = 0
KBWS 120025Z 16016G21KT 32/13 A3002 RMK A01 T03210131  RH  032%=      5-min Rain = 0
KBWS 120030Z 16015KT 32/13 A3002 RMK A01 T03210131  RH  032%=      5-min Rain = 0
KBWS 120035Z 17014KT 32/13 A3003 RMK A01 T03200132  RH  032%=      5-min Rain = 0
KBWS 120040Z 18014KT 32/13 A3003 RMK A01 T03210132  RH  032%=      5-min Rain = 0
KBWS 120045Z 18014KT 32/13 A3003 RMK A01 T03200131  RH  032%=      5-min Rain = 0
KBWS 120050Z 19014KT 32/13 A3003 RMK A01 T03170133  RH  033%=      5-min Rain = 0
KBWS 120055Z 18014KT 32/13 A3003 RMK A01 T03160133  RH  033%=      5-min Rain = 0
KBWS 120100Z 17013KT 32/13 A3003 RMK A01 T03150133  RH  034%=      5-min Rain = 0
KBWS 120105Z 17013KT 31/13 A3003 RMK A01 T03140133  RH  034%=      5-min Rain = 0
KBWS 120110Z 18013KT 31/13 A3003 RMK A01 T03130132  RH  034%=      5-min Rain = 0
KBWS 120115Z 18012KT 31/13 A3004 RMK A01 T03130133  RH  034%=      5-min Rain = 0
KBWS 120120Z 18010KT 31/13 A3004 RMK A01 T03130132  RH  034%=      5-min Rain = 0
KBWS 120125Z 18010KT 31/13 A3004 RMK A01 T03120132  RH  034%=      5-min Rain = 0
KBWS 120130Z 18009KT 31/13 A3004 RMK A01 T03110133  RH  034%=      5-min Rain = 0
KBWS 120135Z 18011KT 31/13 A3004 RMK A01 T03100133  RH  035%=      5-min Rain = 0
KBWS 120140Z 18011KT 31/13 A3004 RMK A01 T03080132  RH  035%=      5-min Rain = 0
KBWS 120145Z 18010G15KT 31/13 A3004 RMK A01 T03070133  RH  035%=      5-min Rain = 0
KBWS 120150Z 18016G21KT 31/13 A3004 RMK A01 T03050134  RH  036%=      5-min Rain = 0
KBWS 120155Z 18018G24KT 30/14 A3004 RMK A01 T03010135  RH  037%=      5-min Rain = 0
KBWS 120200Z 19019G25KT 29/14 A3004 RMK A01 T02940137  RH  039%=      5-min Rain = 0
KBWS 120205Z 18017G24KT 29/13 A3004 RMK A01 T02910134  RH  039%=      5-min Rain = 0
KBWS 120210Z 19017KT 29/13 A3004 RMK A01 T02920126  RH  037%=      5-min Rain = 0
KBWS 120215Z 19017KT 29/12 A3005 RMK A01 T02910121  RH  036%=      5-min Rain = 0
KBWS 120220Z 18017KT 29/13 A3005 RMK A01 T02890134  RH  039%=      5-min Rain = 0
KBWS 120225Z 18015KT 29/14 A3005 RMK A01 T02900138  RH  040%=      5-min Rain = 0
KBWS 120230Z 18013KT 29/14 A3005 RMK A01 T02920138  RH  040%=      5-min Rain = 0
KBWS 120235Z 18014KT 30/13 A3005 RMK A01 T02950134  RH  038%=      5-min Rain = 0
KBWS 120240Z 17013KT 30/13 A3006 RMK A01 T02960133  RH  038%=      5-min Rain = 0
KBWS 120245Z 18011KT 30/14 A3006 RMK A01 T02950135  RH  038%=      5-min Rain = 0
KBWS 120250Z 17009KT 29/14 A3006 RMK A01 T02940135  RH  038%=      5-min Rain = 0
KBWS 120255Z 18009KT 30/13 A3006 RMK A01 T02950131  RH  037%=      5-min Rain = 0
KBWS 120300Z 18009KT 30/13 A3007 RMK A01 T02960130  RH  037%=      5-min Rain = 0
KBWS 120305Z 18009KT 29/13 A3007 RMK A01 T02940131  RH  037%=      5-min Rain = 0
KBWS 120310Z 17008KT 29/13 A3007 RMK A01 T02920132  RH  038%=      5-min Rain = 0
KBWS 120315Z 17008KT 29/14 A3007 RMK A01 T02880135  RH  040%=      5-min Rain = 0
KBWS 120320Z 17007KT 29/14 A3007 RMK A01 T02850137  RH  041%=      5-min Rain = 0
KBWS 120325Z 17007KT 28/14 A3008 RMK A01 T02820139  RH  042%=      5-min Rain = 0
KBWS 120330Z 17007KT 28/14 A3008 RMK A01 T02800141  RH  043%=      5-min Rain = 0
KBWS 120335Z 17007KT 28/14 A3008 RMK A01 T02810139  RH  043%=      5-min Rain = 0
KBWS 120340Z 17008KT 28/14 A3009 RMK A01 T02810138  RH  042%=      5-min Rain = 0
KBWS 120345Z 17007KT 28/14 A3009 RMK A01 T02810139  RH  043%=      5-min Rain = 0
KBWS 120350Z 17007KT 28/14 A3009 RMK A01 T02790139  RH  043%=      5-min Rain = 0
KBWS 120355Z 18007KT 28/14 A3009 RMK A01 T02770139  RH  044%=      5-min Rain = 0
KBWS 120400Z 18006KT 27/14 A3009 RMK A01 T02740140  RH  044%=      5-min Rain = 0
KBWS 120405Z 18006KT 27/14 A3009 RMK A01 T02720141  RH  045%=      5-min Rain = 0
KBWS 120410Z 18006KT 27/14 A3009 RMK A01 T02700141  RH  046%=      5-min Rain = 0
KBWS 120415Z 17006KT 27/14 A3009 RMK A01 T02680141  RH  047%=      5-min Rain = 0
KBWS 120420Z 16006KT 27/14 A301 RMK A01 T02650142  RH  048%=      5-min Rain = 0
KBWS 120425Z 14008KT 26/14 A301 RMK A01 T02600143  RH  049%=      5-min Rain = 0
KBWS 120430Z 15007KT 26/14 A301 RMK A01 T02640138  RH  047%=      5-min Rain = 0
KBWS 120435Z 16006KT 26/13 A301 RMK A01 T02630134  RH  046%=      5-min Rain = 0
KBWS 120440Z 16007KT 26/13 A301 RMK A01 T02620133  RH  046%=      5-min Rain = 0
KBWS 120445Z 16008KT 26/13 A301 RMK A01 T02640130  RH  044%=      5-min Rain = 0
KBWS 120450Z 16008KT 26/13 A301 RMK A01 T02640129  RH  044%=      5-min Rain = 0
KBWS 120455Z 16007KT 26/13 A301 RMK A01 T02620129  RH  044%=      5-min Rain = 0

Page generated in 0.0117 seconds.